Time;durP1;ratioP1;P1;durP2;ratioP2;P2;SDS_P1;SDS_P2;PMS_P1;PMS_P2;Temp;Humidity;BMP_temperature;BMP_pressure;BME280_temperature;BME280_humidity;BME280_pressure;Samples;Min_cycle;Max_cycle;Signal;HPM_P1;HPM_P2
2023/06/08 00:04:45;;;;;;;3.90;3.67;;;20.00;75.00;;;;;;10590025;28;20192;-84
2023/06/08 00:09:47;;;;;;;4.00;3.80;;;19.90;74.80;;;;;;10571318;28;20215;-84
2023/06/08 00:14:50;;;;;;;2.87;2.77;;;19.90;75.40;;;;;;10590500;28;20239;-84
2023/06/08 00:19:56;;;;;;;4.20;3.90;;;19.90;75.40;;;;;;10591538;27;20273;-85
2023/06/08 00:24:58;;;;;;;4.57;4.13;;;19.80;75.60;;;;;;10591845;27;20237;-85
2023/06/08 00:30:02;;;;;;;4.30;3.90;;;19.80;76.10;;;;;;10590666;28;20683;-83
2023/06/08 00:35:05;;;;;;;4.53;4.13;;;19.70;75.30;;;;;;10572647;28;20212;-84
2023/06/08 00:40:08;;;;;;;4.10;3.80;;;19.60;76.30;;;;;;10583046;28;20231;-84
2023/06/08 00:45:12;;;;;;;4.13;3.83;;;19.60;76.40;;;;;;10577284;28;20183;-84
2023/06/08 00:50:16;;;;;;;4.27;3.97;;;19.60;77.10;;;;;;10590294;28;20215;-84
2023/06/08 00:55:19;;;;;;;3.90;3.70;;;19.50;76.60;;;;;;10597907;28;20216;-84
2023/06/08 01:00:24;;;;;;;4.00;3.80;;;19.50;76.50;;;;;;10610409;28;20231;-84
2023/06/08 01:05:27;;;;;;;4.10;3.80;;;19.50;77.10;;;;;;10613766;28;20191;-83
2023/06/08 01:10:34;;;;;;;4.67;4.37;;;19.40;77.50;;;;;;10622133;28;20216;-84
2023/06/08 01:15:42;;;;;;;4.33;4.10;;;19.40;77.40;;;;;;10575960;28;20231;-84
2023/06/08 01:21:02;;;;;;;4.40;4.10;;;19.30;77.20;;;;;;10604553;27;20264;-83
2023/06/08 01:26:06;;;;;;;4.40;4.00;;;19.30;76.30;;;;;;10554480;28;20192;-84
2023/06/08 01:31:08;;;;;;;4.50;4.10;;;19.20;77.40;;;;;;10586592;28;20206;-84
2023/06/08 01:36:18;;;;;;;4.90;4.50;;;19.20;78.00;;;;;;10561953;28;20227;-84
2023/06/08 01:41:26;;;;;;;4.17;3.87;;;19.10;77.20;;;;;;10586309;28;20195;-84
2023/06/08 01:46:31;;;;;;;4.10;3.80;;;19.10;78.50;;;;;;10570930;28;20231;-84
2023/06/08 01:51:36;;;;;;;4.27;4.07;;;19.10;78.70;;;;;;10592037;27;20613;-84
2023/06/08 01:56:39;;;;;;;4.30;4.00;;;19.10;78.90;;;;;;10581577;27;21118;-84
2023/06/08 02:01:42;;;;;;;5.33;5.00;;;19.10;78.80;;;;;;10579261;28;20192;-84
2023/06/08 02:06:44;;;;;;;4.23;4.03;;;19.10;79.40;;;;;;10578631;28;20207;-84
2023/06/08 02:11:47;;;;;;;4.20;3.80;;;19.00;79.00;;;;;;10579504;28;20199;-84
2023/06/08 02:16:49;;;;;;;4.53;4.23;;;19.00;78.70;;;;;;10598423;28;20216;-83
2023/06/08 02:21:51;;;;;;;4.37;4.07;;;19.00;79.00;;;;;;10601413;27;20230;-83
2023/06/08 02:26:55;;;;;;;5.73;5.23;;;18.90;78.80;;;;;;10594210;28;20639;-84
2023/06/08 02:31:57;;;;;;;5.53;4.80;;;18.80;79.10;;;;;;10580115;28;20238;-84
2023/06/08 02:37:00;;;;;;;5.03;4.73;;;18.70;79.90;;;;;;10591417;28;20230;-84
2023/06/08 02:42:03;;;;;;;5.40;5.00;;;18.70;79.30;;;;;;10576688;28;20310;-84
2023/06/08 02:47:06;;;;;;;5.77;5.37;;;18.70;79.90;;;;;;10577161;28;20272;-84
2023/06/08 02:52:08;;;;;;;5.30;4.93;;;18.60;79.50;;;;;;10587510;27;20211;-84
2023/06/08 02:57:12;;;;;;;6.03;5.63;;;18.60;80.40;;;;;;10576012;28;20229;-84
2023/06/08 03:02:22;;;;;;;6.40;5.90;;;18.60;80.90;;;;;;10574474;28;20196;-84
2023/06/08 03:07:25;;;;;;;5.60;5.27;;;18.60;80.80;;;;;;10572720;28;20212;-84
2023/06/08 03:12:34;;;;;;;5.57;5.17;;;18.50;80.20;;;;;;10575375;28;20184;-84
2023/06/08 03:17:42;;;;;;;5.90;5.50;;;18.50;80.30;;;;;;10572428;28;20216;-83
2023/06/08 03:22:45;;;;;;;6.03;5.43;;;18.40;80.90;;;;;;10597955;27;20223;-84
2023/06/08 03:27:49;;;;;;;5.90;5.50;;;18.40;81.60;;;;;;10575204;28;20219;-84
2023/06/08 03:32:52;;;;;;;6.70;6.10;;;18.40;81.80;;;;;;10591096;28;20200;-84
2023/06/08 03:38:01;;;;;;;6.87;6.33;;;18.40;81.50;;;;;;10593262;28;20231;-84
2023/06/08 03:43:06;;;;;;;5.80;5.40;;;18.40;81.40;;;;;;10552858;28;20187;-84
2023/06/08 03:48:08;;;;;;;5.13;4.83;;;18.40;81.90;;;;;;10589907;28;20220;-84
2023/06/08 03:53:13;;;;;;;7.67;5.27;;;18.40;81.60;;;;;;10596798;27;20245;-84
2023/06/08 03:58:17;;;;;;;6.33;5.73;;;18.30;81.10;;;;;;10591916;27;20272;-82
2023/06/08 04:03:24;;;;;;;5.33;4.97;;;18.30;81.80;;;;;;10570300;28;20192;-83
2023/06/08 04:08:31;;;;;;;6.37;5.87;;;18.30;81.90;;;;;;10572952;28;20208;-83
2023/06/08 04:13:36;;;;;;;6.70;6.10;;;18.30;81.60;;;;;;10573005;28;20216;-84
2023/06/08 04:18:40;;;;;;;5.63;5.23;;;18.30;82.40;;;;;;10573103;28;20246;-84
2023/06/08 04:23:46;;;;;;;6.30;5.77;;;18.30;82.00;;;;;;10610132;27;20202;-84
2023/06/08 04:28:51;;;;;;;6.30;5.80;;;18.30;81.70;;;;;;10575440;28;20226;-84
2023/06/08 04:33:56;;;;;;;6.37;5.93;;;18.30;81.00;;;;;;10571483;28;20570;-84
2023/06/08 04:38:59;;;;;;;6.07;5.67;;;18.30;82.10;;;;;;10573004;28;20238;-84
2023/06/08 04:44:05;;;;;;;6.50;5.43;;;18.50;82.40;;;;;;10574138;28;20200;-83
2023/06/08 04:49:08;;;;;;;6.20;5.70;;;18.60;82.30;;;;;;10573693;28;20297;-84
2023/06/08 04:54:13;;;;;;;5.77;5.37;;;18.70;81.40;;;;;;10643794;27;20229;-83
2023/06/08 04:59:16;;;;;;;5.53;5.13;;;18.90;81.20;;;;;;10575627;28;20216;-84
2023/06/08 05:04:22;;;;;;;6.77;5.30;;;19.10;81.30;;;;;;10570078;28;20546;-84
2023/06/08 05:09:24;;;;;;;5.87;5.43;;;19.20;81.50;;;;;;10588748;28;20211;-84
2023/06/08 05:14:27;;;;;;;5.53;5.13;;;19.40;81.30;;;;;;10586096;28;20215;-84
2023/06/08 05:19:30;;;;;;;5.67;5.27;;;19.60;80.60;;;;;;10589561;28;20267;-83
2023/06/08 05:24:32;;;;;;;5.10;4.80;;;19.80;81.00;;;;;;10591567;28;20735;-84
2023/06/08 05:29:35;;;;;;;5.67;4.97;;;20.10;78.20;;;;;;10588492;28;20235;-84
2023/06/08 05:34:37;;;;;;;4.50;4.20;;;20.40;78.50;;;;;;10590881;28;20246;-84
2023/06/08 05:39:39;;;;;;;5.30;4.53;;;20.70;77.20;;;;;;10595762;28;20212;-84
2023/06/08 05:44:43;;;;;;;4.80;4.50;;;20.90;77.60;;;;;;10603010;28;20207;-84
2023/06/08 05:49:45;;;;;;;5.67;5.27;;;21.10;77.50;;;;;;10559229;28;20212;-84
2023/06/08 05:54:47;;;;;;;6.37;5.87;;;21.20;77.30;;;;;;10585152;28;20281;-83
2023/06/08 05:59:51;;;;;;;4.97;4.57;;;21.20;76.10;;;;;;10584220;28;20299;-84
2023/06/08 06:04:53;;;;;;;5.93;5.43;;;21.30;75.90;;;;;;10571669;28;20237;-84
2023/06/08 06:09:55;;;;;;;5.60;5.10;;;21.30;76.20;;;;;;10575869;28;20243;-85
2023/06/08 06:14:58;;;;;;;4.97;4.60;;;21.50;77.90;;;;;;10572759;28;20398;-84
2023/06/08 06:20:01;;;;;;;5.57;5.17;;;21.70;77.20;;;;;;10594954;27;20234;-85
2023/06/08 06:25:04;;;;;;;5.20;4.80;;;22.00;75.70;;;;;;10601124;27;20210;-84
2023/06/08 06:30:09;;;;;;;5.80;5.40;;;22.30;75.10;;;;;;10592224;28;20247;-84
2023/06/08 06:35:11;;;;;;;5.10;4.80;;;22.70;75.40;;;;;;10588475;28;20563;-84
2023/06/08 06:40:13;;;;;;;6.27;5.87;;;23.10;75.00;;;;;;10568632;28;20227;-84
2023/06/08 06:45:16;;;;;;;5.37;4.97;;;23.60;71.70;;;;;;10586913;28;20274;-84
2023/06/08 06:50:18;;;;;;;5.27;4.87;;;23.80;72.30;;;;;;10573323;27;20222;-84
2023/06/08 06:55:21;;;;;;;4.90;4.50;;;24.00;70.80;;;;;;10595954;27;20240;-84
2023/06/08 07:00:24;;;;;;;5.00;4.70;;;24.10;70.00;;;;;;10588682;28;20242;-83
2023/06/08 07:05:26;;;;;;;4.50;4.20;;;24.20;70.60;;;;;;10585756;28;20202;-84
2023/06/08 07:10:29;;;;;;;4.00;3.80;;;24.40;70.80;;;;;;10550738;28;20208;-84
2023/06/08 07:15:32;;;;;;;4.70;4.20;;;24.50;68.90;;;;;;10586144;28;20303;-84
2023/06/08 07:20:35;;;;;;;4.60;4.30;;;24.90;69.30;;;;;;10594577;27;20294;-84
2023/06/08 07:25:38;;;;;;;4.60;4.30;;;25.50;68.00;;;;;;10599292;28;20654;-84
2023/06/08 07:30:41;;;;;;;4.83;4.53;;;26.00;66.50;;;;;;10582145;28;20251;-84
2023/06/08 07:35:44;;;;;;;4.43;3.83;;;26.50;65.40;;;;;;10582611;28;20220;-85
2023/06/08 07:40:46;;;;;;;4.43;4.07;;;27.00;63.30;;;;;;10581763;28;20220;-84
2023/06/08 07:45:50;;;;;;;5.50;5.00;;;27.30;61.20;;;;;;10585418;27;20211;-84
2023/06/08 07:50:52;;;;;;;8.00;4.60;;;27.60;61.10;;;;;;10590359;27;20238;-85
2023/06/08 07:55:55;;;;;;;5.20;4.30;;;27.90;59.40;;;;;;10596525;27;20220;-83
2023/06/08 08:00:58;;;;;;;4.37;4.07;;;28.10;58.80;;;;;;10578166;28;20221;-85
2023/06/08 08:06:00;;;;;;;3.93;3.73;;;28.40;57.80;;;;;;10559260;28;20607;-84
2023/06/08 08:11:02;;;;;;;4.40;4.10;;;28.70;58.00;;;;;;10578525;28;20219;-84
2023/06/08 08:16:06;;;;;;;4.83;4.43;;;29.00;57.40;;;;;;10560056;28;20219;-85
2023/06/08 08:21:08;;;;;;;5.30;4.90;;;29.30;57.00;;;;;;10607084;27;20203;-85
2023/06/08 08:26:10;;;;;;;4.87;4.20;;;29.60;57.10;;;;;;10578965;28;20188;-84
2023/06/08 08:31:16;;;;;;;4.43;4.13;;;29.80;56.70;;;;;;10576611;28;20228;-83
2023/06/08 08:36:18;;;;;;;4.57;4.27;;;30.10;57.40;;;;;;10576764;28;20753;-84
2023/06/08 08:41:21;;;;;;;5.83;5.40;;;30.30;57.00;;;;;;10577464;28;20199;-85
2023/06/08 08:46:25;;;;;;;4.87;4.57;;;30.40;56.30;;;;;;10575671;28;20212;-85
2023/06/08 08:51:28;;;;;;;4.40;4.10;;;30.60;56.90;;;;;;10589725;27;20693;-85
2023/06/08 08:56:36;;;;;;;5.03;4.63;;;30.70;56.00;;;;;;10592437;27;20227;-85
2023/06/08 09:01:41;;;;;;;5.10;4.70;;;30.90;56.20;;;;;;10575719;28;20196;-85
2023/06/08 09:06:48;;;;;;;4.80;4.40;;;31.00;55.50;;;;;;10556137;28;20212;-85
2023/06/08 09:11:58;;;;;;;5.03;4.53;;;31.40;54.80;;;;;;10575298;28;20192;-84
2023/06/08 09:17:01;;;;;;;5.20;4.90;;;31.60;53.50;;;;;;10574757;28;20224;-85
2023/06/08 09:22:04;;;;;;;5.10;4.70;;;31.80;53.00;;;;;;10596273;28;20248;-85
2023/06/08 09:27:06;;;;;;;4.00;3.80;;;32.00;52.70;;;;;;10556362;28;20223;-84
2023/06/08 09:32:12;;;;;;;4.30;4.00;;;32.10;52.40;;;;;;10555259;28;20290;-84
2023/06/08 09:37:14;;;;;;;4.87;4.57;;;32.30;51.90;;;;;;10561803;28;20234;-85
2023/06/08 09:42:16;;;;;;;4.73;4.43;;;32.90;51.20;;;;;;10586031;27;20734;-86
2023/06/08 09:47:25;;;;;;;5.10;4.80;;;33.70;49.70;;;;;;10578101;28;20269;-85
2023/06/08 09:52:31;;;;;;;4.30;3.97;;;34.60;48.20;;;;;;10561346;28;20206;-86
2023/06/08 09:57:35;;;;;;;4.50;4.10;;;35.60;47.20;;;;;;10579727;28;20217;-86
2023/06/08 10:02:44;;;;;;;4.00;3.80;;;36.70;45.90;;;;;;10575645;28;20256;-86
2023/06/08 10:07:49;;;;;;;4.32;3.92;;;37.70;45.60;;;;;;10560329;28;20241;-86
2023/06/08 10:12:52;;;;;;;3.63;3.42;;;38.70;43.90;;;;;;10577517;28;20192;-86
2023/06/08 10:17:57;;;;;;;4.72;4.43;;;39.60;43.80;;;;;;10579458;28;20223;-85
2023/06/08 10:23:00;;;;;;;4.13;3.92;;;40.10;41.10;;;;;;10562914;28;20683;-83
2023/06/08 10:28:07;;;;;;;5.00;4.70;;;38.60;42.10;;;;;;10558970;28;20302;-82
2023/06/08 10:33:12;;;;;;;5.03;4.73;;;36.50;43.30;;;;;;10558789;28;20542;-82
2023/06/08 10:38:15;;;;;;;4.40;4.17;;;34.70;45.20;;;;;;10578560;28;20223;-82
2023/06/08 10:43:18;;;;;;;4.40;4.10;;;33.30;47.20;;;;;;10581143;28;20202;-84
2023/06/08 10:48:22;;;;;;;5.17;4.87;;;32.00;47.40;;;;;;10580443;28;20207;-84
2023/06/08 10:53:41;;;;;;;5.10;4.70;;;31.00;47.50;;;;;;10586721;27;20200;-84
2023/06/08 10:58:52;;;;;;;4.97;4.60;;;30.20;49.20;;;;;;10593923;28;20231;-85
2023/06/08 11:04:00;;;;;;;5.63;5.30;;;29.40;51.00;;;;;;10590025;28;20223;-85
2023/06/08 11:09:03;;;;;;;5.27;4.80;;;28.90;50.70;;;;;;10563332;28;20285;-84
2023/06/08 11:14:05;;;;;;;5.60;5.20;;;28.60;50.10;;;;;;10580774;28;20196;-84
2023/06/08 11:19:11;;;;;;;6.50;6.00;;;28.20;51.00;;;;;;10581218;28;20650;-84
2023/06/08 11:24:15;;;;;;;6.10;5.70;;;27.90;52.10;;;;;;10580903;28;20217;-84
2023/06/08 11:29:17;;;;;;;7.33;6.73;;;27.70;53.60;;;;;;10561465;28;20215;-85
2023/06/08 11:34:22;;;;;;;6.10;5.60;;;27.50;53.40;;;;;;10562552;28;20248;-85
2023/06/08 11:39:24;;;;;;;6.90;6.37;;;27.40;53.30;;;;;;10597200;27;20587;-84
2023/06/08 11:44:27;;;;;;;5.90;5.50;;;27.30;53.40;;;;;;10586429;27;20274;-84
2023/06/08 11:49:53;;;;;;;6.37;5.87;;;27.30;53.80;;;;;;10580126;28;20224;-84
2023/06/08 11:54:57;;;;;;;5.53;5.13;;;27.30;54.70;;;;;;10567409;28;20271;-84
2023/06/08 12:00:06;;;;;;;6.23;5.83;;;27.50;53.00;;;;;;10579768;28;20211;-84
2023/06/08 12:05:17;;;;;;;6.80;6.03;;;27.50;53.20;;;;;;10580168;28;20202;-84
2023/06/08 12:10:19;;;;;;;6.27;5.83;;;27.60;54.00;;;;;;10544135;28;20223;-84
2023/06/08 12:15:21;;;;;;;6.63;6.20;;;27.70;53.70;;;;;;10580975;28;20365;-84
2023/06/08 12:20:24;;;;;;;7.53;7.03;;;27.70;53.70;;;;;;10580663;27;20208;-84
2023/06/08 12:25:26;;;;;;;6.73;6.20;;;27.70;52.80;;;;;;10601487;28;20188;-84
2023/06/08 12:30:29;;;;;;;6.67;6.07;;;27.80;53.40;;;;;;10580012;28;20219;-84
2023/06/08 12:35:32;;;;;;;4.93;4.53;;;27.80;53.10;;;;;;10580457;28;20216;-85
2023/06/08 12:40:34;;;;;;;8.87;5.80;;;27.60;53.50;;;;;;10565787;28;20222;-84
2023/06/08 12:45:36;;;;;;;6.50;4.77;;;27.20;58.30;;;;;;10586144;28;20188;-85
2023/06/08 12:50:40;;;;;;;11.30;6.13;;;26.00;61.20;;;;;;10588383;27;20561;-84
2023/06/08 12:55:43;;;;;;;23.83;18.40;;;25.00;70.20;;;;;;10570259;28;20269;-84
2023/06/08 13:00:45;;;;;;;26.43;19.90;;;23.90;89.50;;;;;;10580178;28;20391;-83
2023/06/08 13:05:48;;;;;;;13.90;12.50;;;22.70;94.30;;;;;;10572023;28;20275;-83
2023/06/08 13:10:50;;;;;;;19.30;16.20;;;21.70;97.10;;;;;;10577023;28;20222;-84
2023/06/08 13:15:53;;;;;;;21.37;18.43;;;20.90;99.50;;;;;;10591690;28;20220;-85
2023/06/08 13:20:57;;;;;;;18.87;17.27;;;20.00;99.90;;;;;;10599653;27;20659;-84
2023/06/08 13:25:59;;;;;;;18.90;17.30;;;19.30;99.90;;;;;;10592592;28;20187;-85
2023/06/08 13:31:01;;;;;;;21.40;19.50;;;18.90;99.90;;;;;;10591213;27;20238;-84
2023/06/08 13:36:06;;;;;;;20.73;18.90;;;18.70;99.90;;;;;;10612134;27;20231;-84
2023/06/08 13:41:09;;;;;;;18.10;16.73;;;18.70;99.90;;;;;;10609187;28;20196;-84
2023/06/08 13:46:11;;;;;;;16.47;15.17;;;18.70;99.90;;;;;;10565724;28;20231;-84
2023/06/08 13:51:14;;;;;;;15.30;14.40;;;18.60;99.90;;;;;;10566295;27;20635;-84
2023/06/08 13:56:17;;;;;;;16.63;15.50;;;18.40;99.90;;;;;;10562907;28;20239;-84
2023/06/08 14:01:19;;;;;;;14.00;13.10;;;18.20;99.90;;;;;;10582040;28;20214;-85
2023/06/08 14:06:22;;;;;;;14.67;13.60;;;18.10;99.90;;;;;;10582053;28;20226;-85
2023/06/08 14:11:25;;;;;;;14.87;13.63;;;18.00;99.90;;;;;;10543629;22;20261;-77
2023/06/08 14:16:28;;;;;;;15.93;14.60;;;18.10;99.90;;;;;;10538143;28;20683;-76
2023/06/08 14:21:31;;;;;;;16.57;15.10;;;18.20;99.90;;;;;;10538006;28;20303;-77
2023/06/08 14:26:33;;;;;;;18.70;15.80;;;18.30;99.90;;;;;;10538542;28;20291;-77
2023/06/08 14:31:35;;;;;;;17.57;16.27;;;18.30;99.90;;;;;;10538244;28;20209;-77
2023/06/08 14:36:39;;;;;;;18.20;16.80;;;18.40;99.90;;;;;;10537708;28;20216;-77
2023/06/08 14:41:41;;;;;;;16.23;15.07;;;18.50;99.90;;;;;;10538050;28;20223;-77
2023/06/08 14:46:43;;;;;;;16.00;14.60;;;18.50;99.90;;;;;;10536719;28;20722;-77
2023/06/08 14:51:47;;;;;;;19.13;17.40;;;18.70;99.90;;;;;;10537528;28;20259;-77
2023/06/08 14:56:49;;;;;;;18.57;17.07;;;19.00;99.90;;;;;;10536407;28;20242;-77
2023/06/08 15:01:51;;;;;;;15.17;14.17;;;19.10;99.90;;;;;;10538038;28;20724;-76
2023/06/08 15:06:54;;;;;;;15.73;14.63;;;19.10;99.90;;;;;;10537025;28;20323;-76
2023/06/08 15:11:56;;;;;;;17.33;16.00;;;19.20;99.90;;;;;;10536867;28;20687;-77
2023/06/08 15:16:58;;;;;;;15.70;14.70;;;19.30;99.90;;;;;;10534916;28;20216;-76
2023/06/08 15:22:02;;;;;;;13.20;12.30;;;19.30;99.90;;;;;;10536307;28;20769;-76
2023/06/08 15:27:05;;;;;;;16.43;15.03;;;19.40;99.90;;;;;;10536415;28;20606;-77
2023/06/08 15:32:08;;;;;;;15.53;14.33;;;19.50;99.90;;;;;;10534371;28;20286;-76
2023/06/08 15:37:11;;;;;;;15.50;14.47;;;19.70;99.90;;;;;;10535565;28;20209;-76
2023/06/08 15:42:13;;;;;;;19.80;14.70;;;19.80;99.90;;;;;;10517960;28;20251;-76
2023/06/08 15:47:16;;;;;;;14.00;12.80;;;19.90;99.90;;;;;;10535507;28;20195;-76
2023/06/08 15:52:19;;;;;;;14.60;13.60;;;20.00;99.90;;;;;;10535230;28;20782;-77
2023/06/08 15:57:21;;;;;;;16.30;15.10;;;20.10;99.90;;;;;;10535176;28;20220;-76
2023/06/08 16:02:24;;;;;;;13.30;12.30;;;20.10;99.90;;;;;;10535122;28;20295;-77
2023/06/08 16:07:27;;;;;;;15.03;13.90;;;20.20;99.90;;;;;;10532848;28;20560;-76
2023/06/08 16:12:30;;;;;;;16.43;15.03;;;20.10;99.90;;;;;;10533732;28;20230;-77
2023/06/08 16:17:32;;;;;;;17.43;15.93;;;20.10;99.90;;;;;;10534238;28;20224;-76
2023/06/08 16:22:35;;;;;;;13.57;12.67;;;20.20;99.90;;;;;;10534075;28;20291;-76
2023/06/08 16:27:37;;;;;;;13.80;12.80;;;20.20;99.90;;;;;;10533889;28;20192;-77
2023/06/08 16:32:39;;;;;;;18.20;16.70;;;20.20;99.90;;;;;;10532353;28;20193;-76
2023/06/08 16:37:43;;;;;;;15.83;14.60;;;20.20;99.90;;;;;;10532273;28;20242;-76
2023/06/08 16:42:46;;;;;;;15.17;13.90;;;20.30;99.90;;;;;;10531924;28;20287;-76
2023/06/08 16:47:50;;;;;;;16.47;15.07;;;20.40;99.90;;;;;;10530525;28;20192;-76
2023/06/08 16:52:54;;;;;;;15.07;13.77;;;20.40;99.90;;;;;;10532214;28;20211;-76
2023/06/08 16:57:57;;;;;;;15.57;14.20;;;20.50;99.90;;;;;;10528526;28;20640;-77
2023/06/08 17:02:59;;;;;;;15.03;13.90;;;20.50;99.90;;;;;;10532872;28;20218;-77
2023/06/08 17:08:02;;;;;;;15.60;14.20;;;20.60;99.90;;;;;;10532004;28;20234;-76
2023/06/08 17:13:05;;;;;;;12.47;11.57;;;20.60;99.90;;;;;;10532058;28;20196;-76
2023/06/08 17:18:07;;;;;;;12.57;11.67;;;20.60;99.90;;;;;;10530827;28;20227;-76
2023/06/08 17:23:11;;;;;;;13.03;12.00;;;20.60;99.90;;;;;;10532142;28;20197;-76
2023/06/08 17:28:13;;;;;;;11.80;11.00;;;20.60;99.90;;;;;;10531117;28;20220;-76
2023/06/08 17:33:15;;;;;;;10.90;10.10;;;20.70;99.90;;;;;;10524595;28;20279;-76
2023/06/08 17:38:18;;;;;;;14.20;13.00;;;20.70;99.90;;;;;;10526021;28;20256;-76
2023/06/08 17:43:21;;;;;;;27.50;24.70;;;20.70;99.90;;;;;;10526750;28;20196;-76
2023/06/08 17:48:23;;;;;;;13.27;12.27;;;20.60;99.90;;;;;;10524141;28;20220;-77
2023/06/08 17:53:27;;;;;;;12.97;11.90;;;20.60;99.90;;;;;;10529819;28;20655;-77
2023/06/08 17:58:29;;;;;;;12.33;11.33;;;20.70;99.90;;;;;;10536132;28;20219;-76
2023/06/08 18:03:31;;;;;;;11.53;10.73;;;20.70;99.90;;;;;;10537487;28;20651;-76
2023/06/08 18:08:35;;;;;;;9.90;9.10;;;20.70;99.90;;;;;;10535978;28;20311;-77
2023/06/08 18:13:38;;;;;;;12.63;11.63;;;20.70;99.90;;;;;;10537876;28;20212;-77
2023/06/08 18:18:41;;;;;;;10.80;10.00;;;20.70;99.90;;;;;;10538760;28;20225;-77
2023/06/08 18:23:44;;;;;;;10.23;9.13;;;20.60;99.90;;;;;;10540286;28;20205;-76
2023/06/08 18:28:47;;;;;;;9.60;8.57;;;20.50;99.90;;;;;;10536285;28;20276;-77
2023/06/08 18:33:49;;;;;;;9.90;9.20;;;20.40;99.90;;;;;;10538055;28;20655;-77
2023/06/08 18:38:52;;;;;;;10.00;9.20;;;20.30;99.90;;;;;;10539275;28;20224;-77
2023/06/08 18:43:54;;;;;;;11.77;10.57;;;20.20;99.90;;;;;;10535801;28;20195;-77
2023/06/08 18:48:58;;;;;;;9.60;8.90;;;20.10;99.90;;;;;;10538281;28;20603;-77
2023/06/08 18:54:02;;;;;;;9.63;8.83;;;20.00;99.90;;;;;;10534452;28;20209;-76
2023/06/08 18:59:06;;;;;;;10.77;9.87;;;19.90;99.90;;;;;;10539269;28;20231;-77
2023/06/08 19:04:08;;;;;;;10.17;9.40;;;19.80;99.90;;;;;;10531607;28;20197;-77
2023/06/08 19:09:19;;;;;;;10.07;9.27;;;19.70;99.90;;;;;;10536437;28;20223;-76
2023/06/08 19:14:22;;;;;;;13.80;12.60;;;19.70;99.90;;;;;;10537362;28;20192;-75
2023/06/08 19:19:24;;;;;;;10.90;10.10;;;19.60;99.90;;;;;;10522025;28;20238;-76
2023/06/08 19:24:28;;;;;;;12.40;11.30;;;19.60;99.90;;;;;;10529680;28;20197;-77
2023/06/08 19:29:30;;;;;;;11.93;10.67;;;19.50;99.90;;;;;;10531320;28;20714;-77
2023/06/08 19:34:34;;;;;;;10.40;9.50;;;19.50;99.90;;;;;;10529631;28;20234;-77
2023/06/08 19:39:38;;;;;;;9.27;8.57;;;19.40;99.90;;;;;;10529090;28;20227;-77
2023/06/08 19:44:40;;;;;;;11.60;10.70;;;19.20;99.90;;;;;;10530748;28;20648;-77
2023/06/08 19:49:43;;;;;;;9.33;8.63;;;19.10;99.90;;;;;;10531127;28;20257;-77
2023/06/08 19:54:46;;;;;;;9.60;8.90;;;19.10;99.90;;;;;;10533838;28;20271;-77
2023/06/08 19:59:48;;;;;;;10.13;9.13;;;19.00;99.90;;;;;;10537368;28;20220;-77
2023/06/08 20:04:50;;;;;;;12.73;11.53;;;19.00;99.90;;;;;;10537676;28;20205;-77
2023/06/08 20:09:54;;;;;;;13.20;12.17;;;18.90;99.90;;;;;;10536868;28;20755;-77
2023/06/08 20:14:56;;;;;;;12.37;11.00;;;18.80;99.90;;;;;;10540756;28;20224;-78
2023/06/08 20:19:58;;;;;;;11.40;10.50;;;18.70;99.90;;;;;;10534011;28;20223;-77
2023/06/08 20:25:01;;;;;;;11.50;10.50;;;18.60;99.90;;;;;;10526414;28;20212;-77
2023/06/08 20:30:05;;;;;;;9.80;9.00;;;18.60;99.90;;;;;;10532953;28;20212;-78
2023/06/08 20:35:08;;;;;;;10.40;9.60;;;18.50;99.90;;;;;;10541419;22;20187;-82
2023/06/08 20:40:13;;;;;;;9.30;8.60;;;18.40;99.90;;;;;;10433653;28;20219;-81
2023/06/08 20:45:15;;;;;;;12.60;11.50;;;18.40;99.90;;;;;;10439697;28;20216;-83
2023/06/08 20:50:17;;;;;;;10.80;10.00;;;18.40;99.90;;;;;;10459358;28;20194;-86
2023/06/08 20:55:24;;;;;;;12.63;11.50;;;18.40;99.90;;;;;;10427243;28;20294;-85
2023/06/08 21:00:26;;;;;;;11.80;10.90;;;18.30;99.90;;;;;;10438742;28;20292;-85
2023/06/08 21:05:31;;;;;;;10.80;9.90;;;18.30;99.90;;;;;;10459448;28;20233;-85
2023/06/08 21:10:34;;;;;;;14.27;11.87;;;18.30;99.90;;;;;;10451679;28;20350;-85
2023/06/08 21:15:37;;;;;;;10.43;9.63;;;18.20;99.90;;;;;;10445820;28;20237;-84
2023/06/08 21:20:39;;;;;;;13.50;12.30;;;18.20;99.90;;;;;;10453618;28;20216;-84
2023/06/08 21:25:42;;;;;;;16.77;15.20;;;18.10;99.90;;;;;;10448367;28;20236;-84
2023/06/08 21:30:46;;;;;;;15.30;13.70;;;18.10;99.90;;;;;;10447617;28;20209;-85
2023/06/08 21:35:48;;;;;;;11.93;10.93;;;18.10;99.90;;;;;;10451059;28;20305;-83
2023/06/08 21:40:54;;;;;;;12.73;11.53;;;18.10;99.90;;;;;;10447196;28;20305;-84
2023/06/08 21:45:57;;;;;;;11.67;10.10;;;18.00;99.90;;;;;;10450264;28;20742;-84
2023/06/08 21:51:02;;;;;;;10.70;9.90;;;18.00;99.90;;;;;;10437350;28;20241;-83
2023/06/08 21:56:10;;;;;;;10.77;9.90;;;17.90;99.90;;;;;;10450267;28;20226;-85
2023/06/08 22:01:12;;;;;;;10.37;9.50;;;17.90;99.90;;;;;;10448422;28;20734;-83
2023/06/08 22:06:15;;;;;;;10.10;9.30;;;17.90;99.90;;;;;;10450486;28;20210;-83
2023/06/08 22:11:19;;;;;;;11.80;8.77;;;17.90;99.90;;;;;;10448099;28;20251;-83
2023/06/08 22:16:21;;;;;;;8.77;8.07;;;17.90;99.90;;;;;;10452434;28;20233;-84
2023/06/08 22:21:24;;;;;;;10.93;9.80;;;17.80;99.90;;;;;;10462324;28;20592;-83
2023/06/08 22:26:33;;;;;;;10.27;9.47;;;17.80;99.90;;;;;;10444327;28;20271;-83
2023/06/08 22:31:38;;;;;;;8.87;8.27;;;17.70;99.90;;;;;;10452449;28;20635;-84
2023/06/08 22:36:44;;;;;;;9.17;8.40;;;17.70;99.90;;;;;;10454615;28;20644;-83
2023/06/08 22:42:26;;;;;;;10.20;9.40;;;17.70;99.90;;;;;;10451937;28;20273;-83
2023/06/08 22:48:00;;;;;;;9.07;8.27;;;17.60;99.90;;;;;;10448559;28;20206;-82
2023/06/08 22:53:33;;;;;;;9.40;8.67;;;17.60;99.90;;;;;;10456708;28;20205;-82
2023/06/08 22:59:09;;;;;;;9.33;8.63;;;17.60;99.90;;;;;;10449198;28;20214;-83
2023/06/08 23:04:24;;;;;;;12.37;9.30;;;17.60;99.90;;;;;;10442304;28;20214;-83
2023/06/08 23:09:52;;;;;;;9.47;8.73;;;17.50;99.90;;;;;;10450789;28;20209;-83
2023/06/08 23:20:33;;;;;;;9.70;9.00;;;17.50;99.90;;;;;;10460035;28;20696;-83
2023/06/08 23:26:15;;;;;;;9.47;8.77;;;17.40;99.90;;;;;;10447486;28;20218;-82
2023/06/08 23:31:45;;;;;;;9.67;8.13;;;17.40;99.90;;;;;;10446137;28;20281;-85
2023/06/08 23:37:09;;;;;;;8.17;7.60;;;17.40;99.90;;;;;;10429509;28;20218;-84
2023/06/08 23:42:26;;;;;;;8.80;8.10;;;17.40;99.90;;;;;;10445996;28;20197;-85
2023/06/08 23:47:29;;;;;;;8.80;8.10;;;17.30;99.90;;;;;;10445071;28;20222;-85
2023/06/08 23:52:32;;;;;;;9.00;8.30;;;17.30;99.90;;;;;;10425321;28;20197;-83
2023/06/08 23:57:35;;;;;;;10.13;9.43;;;17.20;99.90;;;;;;10429060;28;20312;-84
